sensor_id;sensor_type;location;lat;lon;timestamp;pressure;altitude;pressure_sealevel;temperature;humidity
72525;BME280;60547;48.502;8.996;2022-09-21T00:01:07;98689.75;;;7.99;83.35
72525;BME280;60547;48.502;8.996;2022-09-21T00:03:34;98682.63;;;7.94;83.01
72525;BME280;60547;48.502;8.996;2022-09-21T00:06:07;98681.44;;;7.95;83.10
72525;BME280;60547;48.502;8.996;2022-09-21T00:08:33;98696.50;;;7.94;82.83
72525;BME280;60547;48.502;8.996;2022-09-21T00:10:59;98690.16;;;7.97;82.76
72525;BME280;60547;48.502;8.996;2022-09-21T00:13:26;98689.38;;;7.93;82.10
72525;BME280;60547;48.502;8.996;2022-09-21T00:15:56;98681.88;;;7.80;82.05
72525;BME280;60547;48.502;8.996;2022-09-21T00:18:22;98680.69;;;7.77;82.50
72525;BME280;60547;48.502;8.996;2022-09-21T00:20:48;98686.63;;;7.79;82.84
72525;BME280;60547;48.502;8.996;2022-09-21T00:23:14;98690.59;;;7.74;82.39
72525;BME280;60547;48.502;8.996;2022-09-21T00:25:39;98692.19;;;7.65;83.18
72525;BME280;60547;48.502;8.996;2022-09-21T00:28:05;98690.22;;;7.65;83.20
72525;BME280;60547;48.502;8.996;2022-09-21T00:30:30;98688.22;;;7.66;82.89
72525;BME280;60547;48.502;8.996;2022-09-21T00:32:56;98699.72;;;7.64;82.53
72525;BME280;60547;48.502;8.996;2022-09-21T00:35:21;98691.00;;;7.55;82.55
72525;BME280;60547;48.502;8.996;2022-09-21T00:37:47;98685.47;;;7.48;82.42
72525;BME280;60547;48.502;8.996;2022-09-21T00:40:12;98693.00;;;7.51;83.22
72525;BME280;60547;48.502;8.996;2022-09-21T00:42:38;98694.97;;;7.43;83.38
72525;BME280;60547;48.502;8.996;2022-09-21T00:45:05;98698.53;;;7.48;84.04
72525;BME280;60547;48.502;8.996;2022-09-21T00:47:41;98692.22;;;7.43;83.15
72525;BME280;60547;48.502;8.996;2022-09-21T00:50:12;98699.72;;;7.39;82.93
72525;BME280;60547;48.502;8.996;2022-09-21T00:52:41;98693.78;;;7.37;82.85
72525;BME280;60547;48.502;8.996;2022-09-21T00:55:15;98692.22;;;7.26;82.79
72525;BME280;60547;48.502;8.996;2022-09-21T00:57:47;98689.84;;;7.21;82.76
72525;BME280;60547;48.502;8.996;2022-09-21T01:00:13;98685.47;;;7.16;83.33
72525;BME280;60547;48.502;8.996;2022-09-21T01:02:39;98691.41;;;7.22;83.53
72525;BME280;60547;48.502;8.996;2022-09-21T01:05:07;98694.56;;;7.20;83.95
72525;BME280;60547;48.502;8.996;2022-09-21T01:07:35;98691.81;;;7.09;83.65
72525;BME280;60547;48.502;8.996;2022-09-21T01:10:08;98679.53;;;7.07;84.01
72525;BME280;60547;48.502;8.996;2022-09-21T01:15:25;98694.56;;;7.13;83.55
72525;BME280;60547;48.502;8.996;2022-09-21T01:21:13;98697.72;;;7.08;83.27
72525;BME280;60547;48.502;8.996;2022-09-21T01:32:05;98686.25;;;6.92;82.59
72525;BME280;60547;48.502;8.996;2022-09-21T01:37:11;98698.88;;;6.86;83.20
72525;BME280;60547;48.502;8.996;2022-09-21T01:39:42;98687.00;;;6.82;83.43
72525;BME280;60547;48.502;8.996;2022-09-21T01:42:11;98694.50;;;6.74;83.46
72525;BME280;60547;48.502;8.996;2022-09-21T01:44:39;98703.59;;;6.71;83.75
72525;BME280;60547;48.502;8.996;2022-09-21T01:47:09;98700.81;;;6.67;83.82
72525;BME280;60547;48.502;8.996;2022-09-21T01:49:49;98699.19;;;6.59;83.90
72525;BME280;60547;48.502;8.996;2022-09-21T01:52:27;98695.25;;;6.53;84.11
72525;BME280;60547;48.502;8.996;2022-09-21T01:54:58;98703.13;;;6.55;84.01
72525;BME280;60547;48.502;8.996;2022-09-21T01:57:42;98705.88;;;6.51;83.92
72525;BME280;60547;48.502;8.996;2022-09-21T02:00:10;98704.69;;;6.48;84.07
72525;BME280;60547;48.502;8.996;2022-09-21T02:05:38;98711.00;;;6.42;83.82
72525;BME280;60547;48.502;8.996;2022-09-21T02:08:06;98710.22;;;6.45;83.56
72525;BME280;60547;48.502;8.996;2022-09-21T02:10:35;98703.91;;;6.48;83.71
72525;BME280;60547;48.502;8.996;2022-09-21T02:13:04;98714.97;;;6.48;83.21
72525;BME280;60547;48.502;8.996;2022-09-21T02:15:49;98709.38;;;6.37;83.34
72525;BME280;60547;48.502;8.996;2022-09-21T02:21:30;98694.38;;;6.35;83.43
72525;BME280;60547;48.502;8.996;2022-09-21T02:24:08;98701.91;;;6.38;83.69
72525;BME280;60547;48.502;8.996;2022-09-21T02:27:00;98703.06;;;6.37;83.99
72525;BME280;60547;48.502;8.996;2022-09-21T02:32:02;98703.84;;;6.34;84.19
72525;BME280;60547;48.502;8.996;2022-09-21T02:34:45;98703.81;;;6.27;83.19
72525;BME280;60547;48.502;8.996;2022-09-21T02:37:20;98700.66;;;6.28;83.37
72525;BME280;60547;48.502;8.996;2022-09-21T02:42:30;98706.56;;;6.20;84.32
72525;BME280;60547;48.502;8.996;2022-09-21T02:45:04;98693.88;;;6.11;84.14
72525;BME280;60547;48.502;8.996;2022-09-21T02:47:36;98704.94;;;6.11;84.29
72525;BME280;60547;48.502;8.996;2022-09-21T02:50:08;98697.00;;;6.06;83.68
72525;BME280;60547;48.502;8.996;2022-09-21T02:52:38;98696.59;;;6.01;83.47
72525;BME280;60547;48.502;8.996;2022-09-21T02:55:06;98693.81;;;5.97;83.67
72525;BME280;60547;48.502;8.996;2022-09-21T02:57:33;98693.44;;;6.02;83.70
72525;BME280;60547;48.502;8.996;2022-09-21T03:00:00;98695.38;;;5.98;83.83
72525;BME280;60547;48.502;8.996;2022-09-21T03:02:35;98696.19;;;6.02;84.16
72525;BME280;60547;48.502;8.996;2022-09-21T03:05:01;98690.28;;;6.00;84.11
72525;BME280;60547;48.502;8.996;2022-09-21T03:07:26;98702.91;;;6.05;84.59
72525;BME280;60547;48.502;8.996;2022-09-21T03:09:52;98699.00;;;6.09;84.83
72525;BME280;60547;48.502;8.996;2022-09-21T03:12:18;98698.22;;;6.09;83.78
72525;BME280;60547;48.502;8.996;2022-09-21T03:14:44;98696.59;;;6.04;84.15
72525;BME280;60547;48.502;8.996;2022-09-21T03:17:09;98691.50;;;6.06;84.96
72525;BME280;60547;48.502;8.996;2022-09-21T03:19:34;98697.00;;;6.06;85.17
72525;BME280;60547;48.502;8.996;2022-09-21T03:22:00;98694.25;;;6.06;84.30
72525;BME280;60547;48.502;8.996;2022-09-21T03:24:26;98687.91;;;6.02;84.72
72525;BME280;60547;48.502;8.996;2022-09-21T03:27:10;98700.59;;;6.10;84.35
72525;BME280;60547;48.502;8.996;2022-09-21T03:29:35;98706.09;;;6.07;84.48
72525;BME280;60547;48.502;8.996;2022-09-21T03:32:01;98698.19;;;6.05;84.25
72525;BME280;60547;48.502;8.996;2022-09-21T03:34:27;98701.28;;;5.93;84.25
72525;BME280;60547;48.502;8.996;2022-09-21T03:36:52;98704.38;;;5.88;84.51
72525;BME280;60547;48.502;8.996;2022-09-21T03:39:17;98693.28;;;5.81;84.44
72525;BME280;60547;48.502;8.996;2022-09-21T03:41:43;98701.22;;;5.86;84.24
72525;BME280;60547;48.502;8.996;2022-09-21T03:44:08;98712.25;;;5.86;84.41
72525;BME280;60547;48.502;8.996;2022-09-21T03:46:34;98708.69;;;5.86;84.00
72525;BME280;60547;48.502;8.996;2022-09-21T03:49:00;98716.59;;;5.87;84.87
72525;BME280;60547;48.502;8.996;2022-09-21T03:51:28;98708.69;;;5.82;84.68
72525;BME280;60547;48.502;8.996;2022-09-21T03:53:56;98721.81;;;5.96;84.86
72525;BME280;60547;48.502;8.996;2022-09-21T03:56:22;98724.19;;;5.97;85.06
72525;BME280;60547;48.502;8.996;2022-09-21T03:58:47;98726.16;;;5.97;84.84
72525;BME280;60547;48.502;8.996;2022-09-21T04:01:13;98716.31;;;5.99;84.82
72525;BME280;60547;48.502;8.996;2022-09-21T04:03:40;98724.97;;;5.98;84.65
72525;BME280;60547;48.502;8.996;2022-09-21T04:06:10;98717.06;;;5.93;85.23
72525;BME280;60547;48.502;8.996;2022-09-21T04:08:36;98719.84;;;5.96;85.56
72525;BME280;60547;48.502;8.996;2022-09-21T04:11:11;98727.00;;;6.04;85.44
72525;BME280;60547;48.502;8.996;2022-09-21T04:13:36;98723.41;;;6.00;84.93
72525;BME280;60547;48.502;8.996;2022-09-21T04:16:02;98725.00;;;6.01;85.94
72525;BME280;60547;48.502;8.996;2022-09-21T04:18:28;98734.50;;;6.04;85.70
72525;BME280;60547;48.502;8.996;2022-09-21T04:20:53;98728.56;;;6.05;85.68
72525;BME280;60547;48.502;8.996;2022-09-21T04:23:19;98733.75;;;6.10;85.74
72525;BME280;60547;48.502;8.996;2022-09-21T04:25:46;98735.31;;;6.11;85.99
72525;BME280;60547;48.502;8.996;2022-09-21T04:28:11;98732.56;;;6.11;85.88
72525;BME280;60547;48.502;8.996;2022-09-21T04:30:37;98732.16;;;6.09;86.21
72525;BME280;60547;48.502;8.996;2022-09-21T04:33:02;98740.84;;;6.11;86.62
72525;BME280;60547;48.502;8.996;2022-09-21T04:35:28;98741.63;;;6.12;86.29
72525;BME280;60547;48.502;8.996;2022-09-21T04:37:54;98736.09;;;6.08;86.58
72525;BME280;60547;48.502;8.996;2022-09-21T04:40:20;98734.09;;;6.05;86.22
72525;BME280;60547;48.502;8.996;2022-09-21T04:42:56;98720.66;;;6.00;86.37
72525;BME280;60547;48.502;8.996;2022-09-21T04:45:23;98730.56;;;6.08;85.86
72525;BME280;60547;48.502;8.996;2022-09-21T04:47:48;98730.56;;;6.08;85.72
72525;BME280;60547;48.502;8.996;2022-09-21T04:50:14;98735.72;;;6.13;86.07
72525;BME280;60547;48.502;8.996;2022-09-21T04:52:40;98723.44;;;6.04;86.10
72525;BME280;60547;48.502;8.996;2022-09-21T04:55:06;98744.44;;;6.19;86.25
72525;BME280;60547;48.502;8.996;2022-09-21T04:57:32;98738.91;;;6.19;86.13
72525;BME280;60547;48.502;8.996;2022-09-21T04:59:58;98745.63;;;6.22;85.74
72525;BME280;60547;48.502;8.996;2022-09-21T05:02:23;98746.81;;;6.17;85.95
72525;BME280;60547;48.502;8.996;2022-09-21T05:04:49;98747.19;;;6.15;85.80
72525;BME280;60547;48.502;8.996;2022-09-21T05:07:15;98744.78;;;6.07;86.03
72525;BME280;60547;48.502;8.996;2022-09-21T05:09:40;98747.56;;;6.10;85.96
72525;BME280;60547;48.502;8.996;2022-09-21T05:12:24;98750.28;;;6.07;85.94
72525;BME280;60547;48.502;8.996;2022-09-21T05:14:49;98750.28;;;6.07;86.43
72525;BME280;60547;48.502;8.996;2022-09-21T05:17:15;98749.13;;;6.08;86.20
72525;BME280;60547;48.502;8.996;2022-09-21T05:19:41;98760.56;;;6.10;86.07
72525;BME280;60547;48.502;8.996;2022-09-21T05:22:06;98768.91;;;6.17;86.25
72525;BME280;60547;48.502;8.996;2022-09-21T05:24:31;98764.53;;;6.12;85.75
72525;BME280;60547;48.502;8.996;2022-09-21T05:26:57;98743.16;;;6.02;85.90
72525;BME280;60547;48.502;8.996;2022-09-21T05:29:22;98770.84;;;6.13;85.60
72525;BME280;60547;48.502;8.996;2022-09-21T05:31:56;98765.34;;;6.17;85.67
72525;BME280;60547;48.502;8.996;2022-09-21T05:37:21;98769.69;;;6.14;85.54
72525;BME280;60547;48.502;8.996;2022-09-21T05:39:52;98775.63;;;6.20;85.50
72525;BME280;60547;48.502;8.996;2022-09-21T05:42:18;98770.09;;;6.20;84.98
72525;BME280;60547;48.502;8.996;2022-09-21T05:44:43;98768.09;;;6.13;85.67
72525;BME280;60547;48.502;8.996;2022-09-21T06:01:32;98784.38;;;6.32;85.89
72525;BME280;60547;48.502;8.996;2022-09-21T06:04:01;98790.72;;;6.36;86.24
72525;BME280;60547;48.502;8.996;2022-09-21T06:06:27;98783.63;;;6.39;86.52
72525;BME280;60547;48.502;8.996;2022-09-21T06:08:52;98785.25;;;6.43;86.35
72525;BME280;60547;48.502;8.996;2022-09-21T06:11:18;98785.63;;;6.42;85.80
72525;BME280;60547;48.502;8.996;2022-09-21T06:13:43;98775.72;;;6.37;85.77
72525;BME280;60547;48.502;8.996;2022-09-21T06:16:09;98781.25;;;6.37;86.11
72525;BME280;60547;48.502;8.996;2022-09-21T06:18:38;98772.94;;;6.34;86.56
72525;BME280;60547;48.502;8.996;2022-09-21T06:21:05;98780.84;;;6.35;86.03
72525;BME280;60547;48.502;8.996;2022-09-21T06:23:31;98793.09;;;6.34;86.13
72525;BME280;60547;48.502;8.996;2022-09-21T06:25:56;98778.88;;;6.36;85.94
72525;BME280;60547;48.502;8.996;2022-09-21T06:28:22;98781.28;;;6.41;85.37
72525;BME280;60547;48.502;8.996;2022-09-21T06:30:51;98790.78;;;6.43;85.00
72525;BME280;60547;48.502;8.996;2022-09-21T06:33:17;98798.66;;;6.41;85.05
72525;BME280;60547;48.502;8.996;2022-09-21T06:35:58;98796.66;;;6.35;84.97
72525;BME280;60547;48.502;8.996;2022-09-21T06:38:26;98794.66;;;6.32;85.77
72525;BME280;60547;48.502;8.996;2022-09-21T06:40:52;98786.75;;;6.34;85.33
72525;BME280;60547;48.502;8.996;2022-09-21T06:43:18;98792.28;;;6.34;85.50
72525;BME280;60547;48.502;8.996;2022-09-21T06:45:52;98793.91;;;6.38;84.88
72525;BME280;60547;48.502;8.996;2022-09-21T06:48:18;98784.44;;;6.39;84.67
72525;BME280;60547;48.502;8.996;2022-09-21T06:50:43;98786.78;;;6.37;85.50
72525;BME280;60547;48.502;8.996;2022-09-21T06:53:09;98795.53;;;6.46;85.10
72525;BME280;60547;48.502;8.996;2022-09-21T06:55:34;98795.53;;;6.50;84.92
72525;BME280;60547;48.502;8.996;2022-09-21T06:58:03;98793.13;;;6.41;84.52
72525;BME280;60547;48.502;8.996;2022-09-21T07:00:29;98792.75;;;6.46;84.62
72525;BME280;60547;48.502;8.996;2022-09-21T07:02:55;98790.81;;;6.54;84.57
72525;BME280;60547;48.502;8.996;2022-09-21T07:05:21;98790.06;;;6.61;84.94
72525;BME280;60547;48.502;8.996;2022-09-21T07:07:47;98795.25;;;6.69;84.63
72525;BME280;60547;48.502;8.996;2022-09-21T07:10:12;98790.91;;;6.72;85.04
72525;BME280;60547;48.502;8.996;2022-09-21T07:12:38;98796.47;;;6.79;84.16
72525;BME280;60547;48.502;8.996;2022-09-21T07:15:04;98784.19;;;6.69;83.86
72525;BME280;60547;48.502;8.996;2022-09-21T07:17:32;98795.28;;;6.84;84.11
72525;BME280;60547;48.502;8.996;2022-09-21T07:19:58;98792.50;;;6.80;84.49
72525;BME280;60547;48.502;8.996;2022-09-21T07:22:23;98796.06;;;6.80;84.12
72525;BME280;60547;48.502;8.996;2022-09-21T07:24:49;98800.44;;;6.82;83.70
72525;BME280;60547;48.502;8.996;2022-09-21T07:27:14;98789.75;;;6.84;83.35
72525;BME280;60547;48.502;8.996;2022-09-21T07:29:39;98799.25;;;6.83;83.70
72525;BME280;60547;48.502;8.996;2022-09-21T07:32:05;98800.03;;;6.87;83.70
72525;BME280;60547;48.502;8.996;2022-09-21T07:34:34;98803.25;;;6.96;83.77
72525;BME280;60547;48.502;8.996;2022-09-21T07:36:59;98812.75;;;7.02;84.08
72525;BME280;60547;48.502;8.996;2022-09-21T07:39:24;98807.63;;;7.04;84.42
72525;BME280;60547;48.502;8.996;2022-09-21T07:41:50;98801.72;;;7.16;83.73
72525;BME280;60547;48.502;8.996;2022-09-21T07:44:15;98812.41;;;7.21;84.29
72525;BME280;60547;48.502;8.996;2022-09-21T07:46:41;98811.59;;;7.10;84.42
72525;BME280;60547;48.502;8.996;2022-09-21T07:49:06;98802.53;;;7.20;83.78
72525;BME280;60547;48.502;8.996;2022-09-21T07:51:31;98795.00;;;7.21;83.64
72525;BME280;60547;48.502;8.996;2022-09-21T07:53:57;98799.78;;;7.34;82.91
72525;BME280;60547;48.502;8.996;2022-09-21T07:56:23;98810.88;;;7.41;82.90
72525;BME280;60547;48.502;8.996;2022-09-21T07:58:48;98802.97;;;7.47;83.29
72525;BME280;60547;48.502;8.996;2022-09-21T08:01:37;98810.09;;;7.52;83.15
72525;BME280;60547;48.502;8.996;2022-09-21T08:04:06;98805.75;;;7.54;82.52
72525;BME280;60547;48.502;8.996;2022-09-21T08:06:33;98794.69;;;7.61;82.63
72525;BME280;60547;48.502;8.996;2022-09-21T08:09:02;98804.56;;;7.69;83.14
72525;BME280;60547;48.502;8.996;2022-09-21T08:11:28;98805.31;;;7.34;82.95
72525;BME280;60547;48.502;8.996;2022-09-21T08:13:57;98801.81;;;7.66;82.77
72525;BME280;60547;48.502;8.996;2022-09-21T08:16:24;98797.06;;;7.66;83.43
72525;BME280;60547;48.502;8.996;2022-09-21T08:18:50;98787.56;;;7.74;82.50
72525;BME280;60547;48.502;8.996;2022-09-21T08:21:16;98799.44;;;7.96;82.13
72525;BME280;60547;48.502;8.996;2022-09-21T08:23:42;98783.59;;;7.97;82.46
72525;BME280;60547;48.502;8.996;2022-09-21T08:26:10;98780.81;;;8.04;81.29
72525;BME280;60547;48.502;8.996;2022-09-21T08:28:38;98784.78;;;7.85;81.53
72525;BME280;60547;48.502;8.996;2022-09-21T08:31:06;98778.44;;;7.95;81.90
72525;BME280;60547;48.502;8.996;2022-09-21T08:33:35;98784.34;;;8.15;82.21
72525;BME280;60547;48.502;8.996;2022-09-21T08:36:01;98802.16;;;8.25;82.40
72525;BME280;60547;48.502;8.996;2022-09-21T08:38:32;98781.56;;;8.22;81.54
72525;BME280;60547;48.502;8.996;2022-09-21T08:40:59;98795.03;;;8.31;81.31
72525;BME280;60547;48.502;8.996;2022-09-21T08:43:35;98794.63;;;8.43;81.42
72525;BME280;60547;48.502;8.996;2022-09-21T08:46:10;98792.28;;;8.34;81.27
72525;BME280;60547;48.502;8.996;2022-09-21T08:48:43;98791.09;;;8.18;81.91
72525;BME280;60547;48.502;8.996;2022-09-21T08:51:19;98787.91;;;8.19;82.37
72525;BME280;60547;48.502;8.996;2022-09-21T08:53:53;98787.09;;;8.29;82.04
72525;BME280;60547;48.502;8.996;2022-09-21T08:56:21;98788.28;;;8.39;81.59
72525;BME280;60547;48.502;8.996;2022-09-21T08:58:47;98791.84;;;8.50;81.52
72525;BME280;60547;48.502;8.996;2022-09-21T09:01:37;98785.47;;;8.57;82.02
72525;BME280;60547;48.502;8.996;2022-09-21T09:04:18;98781.50;;;8.61;82.07
72525;BME280;60547;48.502;8.996;2022-09-21T09:09:41;98768.75;;;8.74;81.31
72525;BME280;60547;48.502;8.996;2022-09-21T09:17:42;98760.25;;;9.10;81.58
72525;BME280;60547;48.502;8.996;2022-09-21T09:20:24;98751.94;;;9.10;81.62
72525;BME280;60547;48.502;8.996;2022-09-21T09:25:39;98754.75;;;9.62;80.84
72525;BME280;60547;48.502;8.996;2022-09-21T09:28:16;98752.59;;;9.80;79.90
72525;BME280;60547;48.502;8.996;2022-09-21T09:30:46;98742.56;;;9.93;79.88
72525;BME280;60547;48.502;8.996;2022-09-21T09:33:19;98753.13;;;10.09;80.35
72525;BME280;60547;48.502;8.996;2022-09-21T09:35:47;98745.03;;;10.25;77.74
72525;BME280;60547;48.502;8.996;2022-09-21T09:38:23;98735.13;;;10.24;78.61
72525;BME280;60547;48.502;8.996;2022-09-21T09:49:11;98729.66;;;11.39;75.01
72525;BME280;60547;48.502;8.996;2022-09-21T09:51:39;98718.09;;;11.64;74.23
72525;BME280;60547;48.502;8.996;2022-09-21T09:54:12;98704.31;;;11.80;73.21
72525;BME280;60547;48.502;8.996;2022-09-21T09:56:38;98706.41;;;11.96;69.65
72525;BME280;60547;48.502;8.996;2022-09-21T09:59:07;98713.19;;;12.38;68.59
72525;BME280;60547;48.502;8.996;2022-09-21T10:01:40;98709.47;;;12.45;66.77
72525;BME280;60547;48.502;8.996;2022-09-21T10:04:11;98701.00;;;12.68;64.42
72525;BME280;60547;48.502;8.996;2022-09-21T10:06:37;98704.50;;;12.92;62.91
72525;BME280;60547;48.502;8.996;2022-09-21T10:09:23;98702.09;;;13.10;63.28
72525;BME280;60547;48.502;8.996;2022-09-21T10:11:50;98697.78;;;13.42;64.02
72525;BME280;60547;48.502;8.996;2022-09-21T10:14:21;98694.72;;;13.52;60.73
72525;BME280;60547;48.502;8.996;2022-09-21T10:16:51;98693.78;;;13.59;58.55
72525;BME280;60547;48.502;8.996;2022-09-21T10:19:21;98697.78;;;13.74;57.30
72525;BME280;60547;48.502;8.996;2022-09-21T10:21:50;98689.75;;;13.76;56.03
72525;BME280;60547;48.502;8.996;2022-09-21T10:24:33;98683.47;;;13.56;55.71
72525;BME280;60547;48.502;8.996;2022-09-21T10:30:05;98690.25;;;13.87;57.37
72525;BME280;60547;48.502;8.996;2022-09-21T10:32:25;98677.78;;;14.05;57.11
72525;BME280;60547;48.502;8.996;2022-09-21T10:37:39;98666.91;;;14.23;54.07
72525;BME280;60547;48.502;8.996;2022-09-21T10:42:51;98674.56;;;14.35;53.54
72525;BME280;60547;48.502;8.996;2022-09-21T10:45:20;98675.84;;;14.47;52.66
72525;BME280;60547;48.502;8.996;2022-09-21T10:47:49;98667.59;;;14.56;53.65
72525;BME280;60547;48.502;8.996;2022-09-21T10:50:33;98658.66;;;14.74;52.62
72525;BME280;60547;48.502;8.996;2022-09-21T10:56:04;98657.09;;;15.24;51.55
72525;BME280;60547;48.502;8.996;2022-09-21T10:58:31;98658.44;;;15.32;50.66
72525;BME280;60547;48.502;8.996;2022-09-21T11:01:10;98658.44;;;15.44;49.67
72525;BME280;60547;48.502;8.996;2022-09-21T11:03:58;98654.13;;;15.78;48.85
72525;BME280;60547;48.502;8.996;2022-09-21T11:06:32;98654.88;;;15.91;49.16
72525;BME280;60547;48.502;8.996;2022-09-21T11:09:07;98643.31;;;15.89;48.14
72525;BME280;60547;48.502;8.996;2022-09-21T11:14:41;98656.72;;;16.07;49.04
72525;BME280;60547;48.502;8.996;2022-09-21T11:17:15;98654.44;;;15.93;49.23
72525;BME280;60547;48.502;8.996;2022-09-21T11:19:52;98657.31;;;16.02;49.55
72525;BME280;60547;48.502;8.996;2022-09-21T11:25:29;98641.41;;;16.42;48.45
72525;BME280;60547;48.502;8.996;2022-09-21T11:28:56;98637.69;;;16.45;48.86
72525;BME280;60547;48.502;8.996;2022-09-21T11:31:26;98639.69;;;16.23;47.98
72525;BME280;60547;48.502;8.996;2022-09-21T11:36:43;98625.53;;;16.48;46.99
72525;BME280;60547;48.502;8.996;2022-09-21T11:44:43;98624.28;;;16.71;49.28
72525;BME280;60547;48.502;8.996;2022-09-21T11:56:33;98611.22;;;17.27;48.63
72525;BME280;60547;48.502;8.996;2022-09-21T11:58:33;98617.44;;;16.29;47.87
72525;BME280;60547;48.502;8.996;2022-09-21T12:07:12;98593.44;;;17.39;44.31
72525;BME280;60547;48.502;8.996;2022-09-21T12:13:15;98607.81;;;17.41;42.83
72525;BME280;60547;48.502;8.996;2022-09-21T12:16:01;98599.00;;;17.79;42.70
72525;BME280;60547;48.502;8.996;2022-09-21T12:18:47;98601.34;;;17.90;43.09
72525;BME280;60547;48.502;8.996;2022-09-21T12:21:27;98599.53;;;17.47;44.95
72525;BME280;60547;48.502;8.996;2022-09-21T12:23:55;98583.09;;;17.27;44.07
72525;BME280;60547;48.502;8.996;2022-09-21T12:26:25;98588.28;;;17.47;43.83
72525;BME280;60547;48.502;8.996;2022-09-21T12:28:56;98593.63;;;17.63;43.57
72525;BME280;60547;48.502;8.996;2022-09-21T12:31:37;98590.81;;;17.63;41.76
72525;BME280;60547;48.502;8.996;2022-09-21T12:36:50;98575.19;;;18.07;41.65
72525;BME280;60547;48.502;8.996;2022-09-21T12:39:29;98581.16;;;18.00;40.81
72525;BME280;60547;48.502;8.996;2022-09-21T12:44:55;98578.03;;;17.98;42.09
72525;BME280;60547;48.502;8.996;2022-09-21T12:47:44;98590.91;;;17.23;43.49
72525;BME280;60547;48.502;8.996;2022-09-21T12:50:26;98583.53;;;16.76;44.24
72525;BME280;60547;48.502;8.996;2022-09-21T12:52:53;98582.78;;;16.85;43.23
72525;BME280;60547;48.502;8.996;2022-09-21T12:55:37;98585.47;;;17.47;43.16
72525;BME280;60547;48.502;8.996;2022-09-21T12:58:22;98573.81;;;17.94;43.71
72525;BME280;60547;48.502;8.996;2022-09-21T13:01:13;98587.06;;;17.57;42.41
72525;BME280;60547;48.502;8.996;2022-09-21T13:09:00;98586.75;;;17.55;41.03
72525;BME280;60547;48.502;8.996;2022-09-21T13:11:30;98588.41;;;17.34;41.23
72525;BME280;60547;48.502;8.996;2022-09-21T13:13:59;98588.13;;;17.50;41.00
72525;BME280;60547;48.502;8.996;2022-09-21T13:16:29;98577.84;;;17.65;39.87
72525;BME280;60547;48.502;8.996;2022-09-21T13:18:58;98577.88;;;17.93;40.09
72525;BME280;60547;48.502;8.996;2022-09-21T13:21:26;98569.13;;;17.82;40.30
72525;BME280;60547;48.502;8.996;2022-09-21T13:23:59;98560.91;;;17.29;41.96
72525;BME280;60547;48.502;8.996;2022-09-21T13:26:39;98575.16;;;17.43;41.13
72525;BME280;60547;48.502;8.996;2022-09-21T13:29:27;98572.50;;;17.58;41.48
72525;BME280;60547;48.502;8.996;2022-09-21T13:32:18;98571.28;;;18.23;43.03
72525;BME280;60547;48.502;8.996;2022-09-21T13:34:44;98559.97;;;18.42;41.02
72525;BME280;60547;48.502;8.996;2022-09-21T13:37:24;98559.25;;;17.86;40.10
72525;BME280;60547;48.502;8.996;2022-09-21T13:44:59;98562.91;;;17.19;40.41
72525;BME280;60547;48.502;8.996;2022-09-21T13:47:36;98555.91;;;17.33;40.19
72525;BME280;60547;48.502;8.996;2022-09-21T13:53:01;98551.97;;;17.21;40.81
72525;BME280;60547;48.502;8.996;2022-09-21T13:55:32;98547.03;;;17.53;40.88
72525;BME280;60547;48.502;8.996;2022-09-21T13:58:05;98542.31;;;17.40;40.72
72525;BME280;60547;48.502;8.996;2022-09-21T14:00:34;98544.38;;;17.58;40.71
72525;BME280;60547;48.502;8.996;2022-09-21T14:03:21;98547.06;;;17.71;39.72
72525;BME280;60547;48.502;8.996;2022-09-21T14:05:51;98546.53;;;17.27;40.50
72525;BME280;60547;48.502;8.996;2022-09-21T14:08:21;98538.75;;;17.58;40.70
72525;BME280;60547;48.502;8.996;2022-09-21T14:10:57;98539.34;;;17.35;40.93
72525;BME280;60547;48.502;8.996;2022-09-21T14:15:49;98528.56;;;17.61;40.02
72525;BME280;60547;48.502;8.996;2022-09-21T14:23:32;98535.56;;;17.20;39.53
72525;BME280;60547;48.502;8.996;2022-09-21T14:25:59;98541.28;;;16.58;43.34
72525;BME280;60547;48.502;8.996;2022-09-21T14:28:44;98535.31;;;16.87;39.70
72525;BME280;60547;48.502;8.996;2022-09-21T14:31:19;98534.63;;;17.23;39.83
72525;BME280;60547;48.502;8.996;2022-09-21T14:33:50;98539.00;;;17.15;39.55
72525;BME280;60547;48.502;8.996;2022-09-21T14:36:25;98532.72;;;17.01;39.38
72525;BME280;60547;48.502;8.996;2022-09-21T14:38:58;98523.38;;;17.23;39.82
72525;BME280;60547;48.502;8.996;2022-09-21T14:41:37;98527.44;;;17.22;39.33
72525;BME280;60547;48.502;8.996;2022-09-21T14:44:06;98533.06;;;17.22;39.32
72525;BME280;60547;48.502;8.996;2022-09-21T14:46:55;98531.63;;;17.08;39.06
72525;BME280;60547;48.502;8.996;2022-09-21T14:49:48;98528.06;;;17.17;39.41
72525;BME280;60547;48.502;8.996;2022-09-21T14:52:28;98523.34;;;17.04;39.16
72525;BME280;60547;48.502;8.996;2022-09-21T14:55:06;98520.81;;;16.88;39.22
72525;BME280;60547;48.502;8.996;2022-09-21T15:09:07;98503.63;;;16.95;39.43
72525;BME280;60547;48.502;8.996;2022-09-21T15:12:07;98501.09;;;16.79;38.75
72525;BME280;60547;48.502;8.996;2022-09-21T15:14:42;98508.84;;;16.66;39.68
72525;BME280;60547;48.502;8.996;2022-09-21T15:19:48;98493.75;;;16.72;39.48
72525;BME280;60547;48.502;8.996;2022-09-21T15:22:16;98498.59;;;16.81;40.75
72525;BME280;60547;48.502;8.996;2022-09-21T15:25:01;98501.56;;;16.77;39.88
72525;BME280;60547;48.502;8.996;2022-09-21T15:27:31;98496.84;;;16.65;40.50
72525;BME280;60547;48.502;8.996;2022-09-21T15:29:58;98493.31;;;16.92;40.02
72525;BME280;60547;48.502;8.996;2022-09-21T15:32:40;98505.06;;;16.60;39.27
72525;BME280;60547;48.502;8.996;2022-09-21T15:35:20;98505.34;;;16.53;39.68
72525;BME280;60547;48.502;8.996;2022-09-21T15:37:46;98500.03;;;16.55;39.59
72525;BME280;60547;48.502;8.996;2022-09-21T15:40:20;98505.03;;;16.51;40.35
72525;BME280;60547;48.502;8.996;2022-09-21T15:43:15;98507.16;;;16.68;40.25
72525;BME280;60547;48.502;8.996;2022-09-21T15:48:24;98499.41;;;16.20;39.89
72525;BME280;60547;48.502;8.996;2022-09-21T15:51:02;98494.06;;;16.12;39.92
72525;BME280;60547;48.502;8.996;2022-09-21T15:53:35;98501.28;;;15.92;41.11
72525;BME280;60547;48.502;8.996;2022-09-21T15:56:02;98498.16;;;15.90;40.37
72525;BME280;60547;48.502;8.996;2022-09-21T15:58:33;98499.50;;;15.85;41.17